createdAt,value
2017-09-21T00:00:19.203Z,28.23
2017-09-21T00:02:45.536Z,29.77
2017-09-21T00:05:11.931Z,29.60
2017-09-21T00:07:38.203Z,29.33
2017-09-21T00:10:04.492Z,28.23
2017-09-21T00:12:30.828Z,28.60
2017-09-21T00:14:57.215Z,29.80
2017-09-21T00:17:23.549Z,29.13
2017-09-21T00:19:50.568Z,29.17
2017-09-21T00:22:16.861Z,30.50
2017-09-21T00:24:43.227Z,30.17
2017-09-21T00:27:09.535Z,30.30
2017-09-21T00:29:35.865Z,31.57
2017-09-21T00:32:02.322Z,31.10
2017-09-21T00:34:28.609Z,31.20
2017-09-21T00:36:54.947Z,29.50
2017-09-21T00:39:21.268Z,31.70
2017-09-21T00:41:47.581Z,29.20
2017-09-21T00:44:14.859Z,30.80
2017-09-21T00:46:41.173Z,31.37
2017-09-21T00:49:07.468Z,30.13
2017-09-21T00:51:33.791Z,33.40
2017-09-21T00:54:00.071Z,30.20
2017-09-21T00:56:26.339Z,30.40
2017-09-21T00:58:52.725Z,30.93
2017-09-21T01:01:19.187Z,32.63
2017-09-21T01:03:45.480Z,31.40
2017-09-21T01:06:12.615Z,32.40
2017-09-21T01:08:39.692Z,31.13
2017-09-21T01:11:05.984Z,33.63
2017-09-21T01:13:32.347Z,32.30
2017-09-21T01:15:58.676Z,32.53
2017-09-21T01:18:25.048Z,30.70
2017-09-21T01:20:51.327Z,30.10
2017-09-21T01:23:18.367Z,32.20
2017-09-21T01:25:46.261Z,30.63
2017-09-21T01:28:12.628Z,30.20
2017-09-21T01:30:39.024Z,30.60
2017-09-21T01:33:05.317Z,29.83
2017-09-21T01:35:31.603Z,30.77
2017-09-21T01:37:57.956Z,30.33
2017-09-21T01:40:24.232Z,32.87
2017-09-21T01:42:50.507Z,32.10
2017-09-21T01:45:16.813Z,30.97
2017-09-21T01:47:43.121Z,32.73
2017-09-21T01:50:09.391Z,31.80
2017-09-21T01:52:35.700Z,29.50
2017-09-21T01:55:02.016Z,32.67
2017-09-21T01:57:28.660Z,32.50
2017-09-21T01:59:54.968Z,32.70
2017-09-21T02:02:22.016Z,31.80
2017-09-21T02:04:49.074Z,29.77
2017-09-21T02:07:15.367Z,30.57
2017-09-21T02:09:41.640Z,28.20
2017-09-21T02:12:07.964Z,32.03
2017-09-21T02:14:34.283Z,30.17
2017-09-21T02:17:01.354Z,30.90
2017-09-21T02:19:27.679Z,32.10
2017-09-21T02:21:54.001Z,30.53
2017-09-21T02:24:20.311Z,30.63
2017-09-21T02:26:47.512Z,30.70
2017-09-21T02:29:13.840Z,33.37
2017-09-21T02:31:40.339Z,33.73
2017-09-21T02:34:07.394Z,32.77
2017-09-21T02:36:33.676Z,34.00
2017-09-21T02:39:00.004Z,33.40
2017-09-21T02:41:26.377Z,33.10
2017-09-21T02:43:52.672Z,33.50
2017-09-21T02:46:19.717Z,31.87
2017-09-21T02:48:46.031Z,33.00
2017-09-21T02:51:12.356Z,29.03
2017-09-21T02:53:38.670Z,30.57
2017-09-21T02:56:04.964Z,31.77
2017-09-21T02:58:32.063Z,32.90
2017-09-21T03:00:58.403Z,31.83
2017-09-21T03:03:24.687Z,33.13
2017-09-21T03:05:51.057Z,29.23
2017-09-21T03:08:17.361Z,30.57
2017-09-21T03:10:43.671Z,32.73
2017-09-21T03:13:10.718Z,33.67
2017-09-21T03:15:37.091Z,30.70
2017-09-21T03:18:03.386Z,33.47
2017-09-21T03:20:29.717Z,31.27
2017-09-21T03:22:55.988Z,34.10
2017-09-21T03:25:22.282Z,31.30
2017-09-21T03:27:48.604Z,31.53
2017-09-21T03:30:15.023Z,28.47
2017-09-21T03:32:42.053Z,28.07
2017-09-21T03:35:09.243Z,28.90
2017-09-21T03:37:35.553Z,29.20
2017-09-21T03:40:02.634Z,31.07
2017-09-21T03:42:29.688Z,29.73
2017-09-21T03:44:56.027Z,27.87
2017-09-21T03:47:22.547Z,28.67
2017-09-21T03:49:49.038Z,31.60
2017-09-21T03:52:16.109Z,30.73
2017-09-21T03:54:42.596Z,31.20
2017-09-21T03:57:09.047Z,32.77
2017-09-21T03:59:35.344Z,33.53
2017-09-21T04:02:01.639Z,31.97
2017-09-21T04:04:28.021Z,31.30
2017-09-21T04:06:55.135Z,33.20
2017-09-21T04:09:21.431Z,37.77
2017-09-21T04:11:48.493Z,39.80
2017-09-21T04:14:14.768Z,39.90
2017-09-21T04:16:41.071Z,38.17
2017-09-21T04:19:07.424Z,39.40
2017-09-21T04:21:33.919Z,38.87
2017-09-21T04:24:00.231Z,36.43
2017-09-21T04:26:27.287Z,37.97
2017-09-21T04:28:53.639Z,39.27
2017-09-21T04:31:19.921Z,43.80
2017-09-21T04:33:46.267Z,42.70
2017-09-21T04:36:13.326Z,45.07
2017-09-21T04:38:40.438Z,44.90
2017-09-21T04:41:06.783Z,46.00
2017-09-21T04:43:33.846Z,41.53
2017-09-21T04:46:00.987Z,44.43
2017-09-21T04:48:28.017Z,43.57
2017-09-21T04:50:55.819Z,41.50
2017-09-21T04:53:22.260Z,41.17
2017-09-21T04:55:48.916Z,37.73
2017-09-21T04:58:15.240Z,35.97
2017-09-21T05:00:41.663Z,37.67
2017-09-21T05:03:07.996Z,35.30
2017-09-21T05:05:34.324Z,37.10
2017-09-21T05:08:00.611Z,36.33
2017-09-21T05:10:26.959Z,34.77
2017-09-21T05:12:53.307Z,36.60
2017-09-21T05:15:19.649Z,35.10
2017-09-21T05:17:45.961Z,35.27
2017-09-21T05:20:12.269Z,34.97
2017-09-21T05:22:39.382Z,36.40
2017-09-21T05:25:05.736Z,34.77
2017-09-21T05:27:32.108Z,35.57
2017-09-21T05:29:58.447Z,34.70
2017-09-21T05:32:24.785Z,33.77
2017-09-21T05:34:51.091Z,34.30
2017-09-21T05:37:17.415Z,33.63
2017-09-21T05:39:44.468Z,32.83
2017-09-21T05:42:11.533Z,31.97
2017-09-21T05:44:37.862Z,33.20
2017-09-21T05:47:04.173Z,34.20
2017-09-21T05:49:31.221Z,34.57
2017-09-21T05:51:57.559Z,34.00
2017-09-21T05:54:23.877Z,32.93
2017-09-21T05:56:50.193Z,32.13
2017-09-21T05:59:17.207Z,31.57
2017-09-21T06:01:43.515Z,31.80
2017-09-21T06:04:09.887Z,32.43
2017-09-21T06:06:36.280Z,31.40
2017-09-21T06:09:02.664Z,32.17
2017-09-21T06:11:29.791Z,32.67
2017-09-21T06:13:56.064Z,32.43
2017-09-21T06:16:22.377Z,31.20
2017-09-21T06:18:49.431Z,30.60
2017-09-21T06:21:16.616Z,31.17
2017-09-21T06:23:42.953Z,30.10
2017-09-21T06:26:09.256Z,30.03
2017-09-21T06:28:35.621Z,30.77
2017-09-21T06:31:01.956Z,36.03
2017-09-21T06:33:28.288Z,32.10
2017-09-21T06:35:54.577Z,29.20
2017-09-21T06:38:20.909Z,31.13
2017-09-21T06:40:47.259Z,31.57
2017-09-21T06:43:13.600Z,30.90
2017-09-21T06:45:39.924Z,32.67
2017-09-21T06:48:06.284Z,30.97
2017-09-21T06:50:32.612Z,32.53
2017-09-21T06:52:58.968Z,33.20
2017-09-21T06:55:26.027Z,32.20
2017-09-21T06:57:53.159Z,30.53
2017-09-21T07:00:19.492Z,32.57
2017-09-21T07:02:46.559Z,30.60
2017-09-21T07:05:13.623Z,31.93
2017-09-21T07:07:40.004Z,33.00
2017-09-21T07:10:06.384Z,33.70
2017-09-21T07:12:32.772Z,32.30
2017-09-21T07:14:59.183Z,32.53
2017-09-21T07:17:25.481Z,30.77
2017-09-21T07:19:51.824Z,30.40
2017-09-21T07:22:18.246Z,30.70
2017-09-21T07:24:44.600Z,30.50
2017-09-21T07:27:10.960Z,31.63
2017-09-21T07:29:37.325Z,32.10
2017-09-21T07:32:03.624Z,31.40
2017-09-21T07:34:31.448Z,34.03
2017-09-21T07:36:57.816Z,33.10
2017-09-21T07:39:24.104Z,34.40
2017-09-21T07:41:50.444Z,31.90
2017-09-21T07:44:16.885Z,32.90
2017-09-21T07:46:43.188Z,32.20
2017-09-21T07:49:09.509Z,34.30
2017-09-21T07:51:35.812Z,33.07
2017-09-21T07:54:02.158Z,32.20
2017-09-21T07:56:29.335Z,32.37
2017-09-21T07:58:56.337Z,31.33
2017-09-21T08:01:23.485Z,32.53
2017-09-21T08:03:51.074Z,31.43
2017-09-21T08:06:17.488Z,33.50
2017-09-21T08:08:44.566Z,32.87
2017-09-21T08:11:10.875Z,31.00
2017-09-21T08:13:37.993Z,32.77
2017-09-21T08:16:04.369Z,34.00
2017-09-21T08:18:30.881Z,31.97
2017-09-21T08:20:57.944Z,31.00
2017-09-21T08:23:24.236Z,29.90
2017-09-21T08:25:51.324Z,31.77
2017-09-21T08:28:17.664Z,29.60
2017-09-21T08:30:44.034Z,32.80
2017-09-21T08:33:10.332Z,30.27
2017-09-21T08:35:36.657Z,33.70
2017-09-21T08:38:03.701Z,30.30
2017-09-21T08:40:30.004Z,31.23
2017-09-21T08:42:57.149Z,32.90
2017-09-21T08:45:24.184Z,32.17
2017-09-21T08:47:51.238Z,28.60
2017-09-21T08:50:19.048Z,31.30
2017-09-21T08:52:45.333Z,31.13
2017-09-21T08:55:11.658Z,30.60
2017-09-21T08:57:38.679Z,33.07
2017-09-21T09:00:05.002Z,31.70
2017-09-21T09:02:32.217Z,31.47
2017-09-21T09:04:58.637Z,30.10
2017-09-21T09:07:25.693Z,32.40
2017-09-21T09:09:52.754Z,31.60
2017-09-21T09:12:19.055Z,30.30
2017-09-21T09:14:46.106Z,31.60
2017-09-21T09:17:13.161Z,32.03
2017-09-21T09:19:39.528Z,30.77
2017-09-21T09:22:05.871Z,30.20
2017-09-21T09:24:32.175Z,31.90
2017-09-21T09:26:58.608Z,31.17
2017-09-21T09:29:25.103Z,28.37
2017-09-21T09:31:51.395Z,31.67
2017-09-21T09:34:17.784Z,32.57
2017-09-21T09:36:44.081Z,28.87
2017-09-21T09:39:11.322Z,29.23
2017-09-21T09:41:37.696Z,30.20
2017-09-21T09:44:04.004Z,30.60
2017-09-21T09:46:30.357Z,30.10
2017-09-21T09:48:56.741Z,30.90
2017-09-21T09:51:23.079Z,31.53
2017-09-21T09:53:49.404Z,30.20
2017-09-21T09:56:15.713Z,31.47
2017-09-21T09:58:42.012Z,30.73
2017-09-21T10:01:08.340Z,32.33
2017-09-21T10:03:35.403Z,31.70
2017-09-21T10:06:01.694Z,31.50
2017-09-21T10:08:28.042Z,33.43
2017-09-21T10:10:55.083Z,34.13
2017-09-21T10:13:22.168Z,31.57
2017-09-21T10:15:48.492Z,32.57
2017-09-21T10:18:14.843Z,30.90
2017-09-21T10:20:41.171Z,32.80
2017-09-21T10:23:07.538Z,32.10
2017-09-21T10:25:33.855Z,33.27
2017-09-21T10:28:00.197Z,31.83
2017-09-21T10:30:26.510Z,32.83
2017-09-21T10:32:52.803Z,31.70
2017-09-21T10:35:19.227Z,30.53
2017-09-21T10:37:45.572Z,31.33
2017-09-21T10:40:11.853Z,28.80
2017-09-21T10:42:38.177Z,30.80
2017-09-21T10:45:05.366Z,30.47
2017-09-21T10:47:31.708Z,31.90
2017-09-21T10:49:58.075Z,30.27
2017-09-21T10:52:24.371Z,28.13
2017-09-21T10:54:50.719Z,28.67
2017-09-21T10:57:17.075Z,30.37
2017-09-21T10:59:45.021Z,29.60
2017-09-21T11:02:11.360Z,29.97
2017-09-21T11:04:37.691Z,30.07
2017-09-21T11:07:04.040Z,27.83
2017-09-21T11:09:31.059Z,31.27
2017-09-21T11:11:57.356Z,28.60
2017-09-21T11:14:23.737Z,28.37
2017-09-21T11:16:50.001Z,26.17
2017-09-21T11:19:17.124Z,26.47
2017-09-21T11:21:43.496Z,27.00
2017-09-21T11:24:09.863Z,26.37
2017-09-21T11:26:36.204Z,29.70
2017-09-21T11:29:02.521Z,27.47
2017-09-21T11:31:28.840Z,25.63
2017-09-21T11:33:55.196Z,25.07
2017-09-21T11:36:21.561Z,24.80
2017-09-21T11:38:48.601Z,25.07
2017-09-21T11:41:15.670Z,23.60
2017-09-21T11:43:41.968Z,23.43
2017-09-21T11:46:08.260Z,23.03
2017-09-21T11:48:34.608Z,24.07
2017-09-21T11:51:00.976Z,22.60
2017-09-21T11:53:28.101Z,24.50
2017-09-21T11:55:54.423Z,23.50
2017-09-21T11:58:20.768Z,23.10
2017-09-21T12:00:47.281Z,23.17
2017-09-21T12:03:14.355Z,19.10
2017-09-21T12:05:40.655Z,15.50
2017-09-21T12:08:07.025Z,15.10
2017-09-21T12:10:34.087Z,14.47
2017-09-21T12:13:01.143Z,14.70
2017-09-21T12:15:28.213Z,15.07
2017-09-21T12:17:54.749Z,14.53
2017-09-21T12:20:21.060Z,12.50
2017-09-21T12:22:47.489Z,11.83
2017-09-21T12:25:13.781Z,14.30
2017-09-21T12:27:40.126Z,13.67
2017-09-21T12:30:07.191Z,11.40
2017-09-21T12:32:33.482Z,9.20
2017-09-21T12:35:00.559Z,8.17
2017-09-21T12:37:28.288Z,11.30
2017-09-21T12:39:54.627Z,13.17
2017-09-21T12:42:20.933Z,11.33
2017-09-21T12:44:47.285Z,12.30
2017-09-21T12:47:13.556Z,10.77
2017-09-21T12:49:39.908Z,12.00
2017-09-21T12:52:06.180Z,10.83
2017-09-21T12:54:32.492Z,8.60
2017-09-21T12:56:59.104Z,15.47
2017-09-21T12:59:25.980Z,12.50
2017-09-21T13:01:52.295Z,15.40
2017-09-21T13:04:18.716Z,14.20
2017-09-21T13:06:45.033Z,14.50
2017-09-21T13:09:11.366Z,13.83
2017-09-21T13:11:37.690Z,13.50
2017-09-21T13:14:03.985Z,13.37
2017-09-21T13:16:31.053Z,14.87
2017-09-21T13:18:57.336Z,16.60
2017-09-21T13:21:23.615Z,13.17
2017-09-21T13:23:50.104Z,13.40
2017-09-21T13:26:16.417Z,12.10
2017-09-21T13:28:42.718Z,11.73
2017-09-21T13:31:09.001Z,12.17
2017-09-21T13:33:35.292Z,12.60
2017-09-21T13:36:01.608Z,11.97
2017-09-21T13:38:27.927Z,7.93
2017-09-21T13:40:54.229Z,6.37
2017-09-21T13:43:21.620Z,6.50
2017-09-21T13:45:47.915Z,5.37
2017-09-21T13:48:14.228Z,5.90
2017-09-21T13:50:40.551Z,5.57
2017-09-21T13:53:07.053Z,5.87
2017-09-21T13:55:33.923Z,4.67
2017-09-21T13:58:00.238Z,7.37
2017-09-21T14:00:26.627Z,5.13
2017-09-21T14:02:53.683Z,5.13
2017-09-21T14:05:19.985Z,5.23
2017-09-21T14:07:46.281Z,3.87
2017-09-21T14:10:12.596Z,4.70
2017-09-21T14:12:38.908Z,3.80
2017-09-21T14:15:05.238Z,4.43
2017-09-21T14:17:31.535Z,4.17
2017-09-21T14:19:58.784Z,6.40
2017-09-21T14:22:25.869Z,6.03
2017-09-21T14:24:52.210Z,6.17
2017-09-21T14:27:18.497Z,6.80
2017-09-21T14:29:44.800Z,5.63
2017-09-21T14:32:11.120Z,5.43
2017-09-21T14:34:37.491Z,5.30
2017-09-21T14:37:03.772Z,4.97
2017-09-21T14:39:30.115Z,5.10
2017-09-21T14:41:56.412Z,4.60
2017-09-21T14:44:23.574Z,4.23
2017-09-21T14:46:49.867Z,4.50
2017-09-21T14:49:17.136Z,4.70
2017-09-21T14:51:43.460Z,4.83
2017-09-21T14:54:10.697Z,5.13
2017-09-21T14:56:37.755Z,4.67
2017-09-21T14:59:04.871Z,4.07
2017-09-21T15:01:31.199Z,3.90
2017-09-21T15:03:57.532Z,4.30
2017-09-21T15:06:23.855Z,3.50
2017-09-21T15:08:50.165Z,3.90
2017-09-21T15:11:16.481Z,4.03
2017-09-21T15:13:42.824Z,3.87
2017-09-21T15:16:09.126Z,3.33
2017-09-21T15:18:35.467Z,3.40
2017-09-21T15:21:01.756Z,3.93
2017-09-21T15:23:28.069Z,3.57
2017-09-21T15:25:54.422Z,3.40
2017-09-21T15:28:20.749Z,3.97
2017-09-21T15:30:47.792Z,3.07
2017-09-21T15:33:14.129Z,3.47
2017-09-21T15:35:40.454Z,3.70
2017-09-21T15:38:07.516Z,4.03
2017-09-21T15:40:34.597Z,3.73
2017-09-21T15:43:01.131Z,3.17
2017-09-21T15:45:27.442Z,3.70
2017-09-21T15:47:54.757Z,4.10
2017-09-21T15:50:21.102Z,3.30
2017-09-21T15:52:47.401Z,4.07
2017-09-21T15:55:13.774Z,3.80
2017-09-21T15:57:40.044Z,3.40
2017-09-21T16:00:06.353Z,3.10
2017-09-21T16:02:32.642Z,4.20
2017-09-21T16:04:59.153Z,3.50
2017-09-21T16:07:25.469Z,3.63
2017-09-21T16:09:51.797Z,3.67
2017-09-21T16:12:18.088Z,3.30
2017-09-21T16:14:45.184Z,4.30
2017-09-21T16:17:11.513Z,3.70
2017-09-21T16:19:37.802Z,5.40
2017-09-21T16:22:04.886Z,5.73
2017-09-21T16:24:31.269Z,5.97
2017-09-21T16:26:58.378Z,5.60
2017-09-21T16:29:24.672Z,4.70
2017-09-21T16:31:51.228Z,4.70
2017-09-21T16:34:17.536Z,4.63
2017-09-21T16:36:43.879Z,5.60
2017-09-21T16:39:10.174Z,5.73
2017-09-21T16:41:37.295Z,6.10
2017-09-21T16:44:03.627Z,6.00
2017-09-21T16:46:29.965Z,6.10
2017-09-21T16:48:56.275Z,6.33
2017-09-21T16:51:22.632Z,6.27
2017-09-21T16:53:49.016Z,6.30
2017-09-21T16:56:15.396Z,7.73
2017-09-21T16:58:41.767Z,6.80
2017-09-21T17:01:08.052Z,7.43
2017-09-21T17:03:34.369Z,6.63
2017-09-21T17:06:00.690Z,6.97
2017-09-21T17:08:26.973Z,7.37
2017-09-21T17:10:54.062Z,7.30
2017-09-21T17:13:20.451Z,7.17
2017-09-21T17:15:47.690Z,6.87
2017-09-21T17:18:14.027Z,8.00
2017-09-21T17:20:41.194Z,8.40
2017-09-21T17:23:08.276Z,8.20
2017-09-21T17:25:34.569Z,8.27
2017-09-21T17:28:01.012Z,9.03
2017-09-21T17:30:27.318Z,9.30
2017-09-21T17:32:54.410Z,7.67
2017-09-21T17:35:20.753Z,9.10
2017-09-21T17:37:47.229Z,9.10
2017-09-21T17:40:14.289Z,8.80
2017-09-21T17:42:40.599Z,7.70
2017-09-21T17:45:07.652Z,9.40
2017-09-21T17:47:34.822Z,9.60
2017-09-21T17:50:01.259Z,8.60
2017-09-21T17:52:27.691Z,8.60
2017-09-21T17:54:54.557Z,9.57
2017-09-21T17:57:21.660Z,9.43
2017-09-21T17:59:48.709Z,10.33
2017-09-21T18:02:15.811Z,8.97
2017-09-21T18:04:42.116Z,9.10
2017-09-21T18:07:08.454Z,9.67
2017-09-21T18:09:35.532Z,8.60
2017-09-21T18:12:01.866Z,9.70
2017-09-21T18:14:28.201Z,8.33
2017-09-21T18:16:54.529Z,8.80
2017-09-21T18:19:20.985Z,10.93
2017-09-21T18:21:48.091Z,9.47
2017-09-21T18:24:14.404Z,9.03
2017-09-21T18:26:40.734Z,10.43
2017-09-21T18:29:07.125Z,10.77
2017-09-21T18:31:34.215Z,10.50
2017-09-21T18:34:00.535Z,11.30
2017-09-21T18:36:26.852Z,11.73
2017-09-21T18:38:53.221Z,9.40
2017-09-21T18:41:19.592Z,10.83
2017-09-21T18:43:46.654Z,10.60
2017-09-21T18:46:13.747Z,9.40
2017-09-21T18:48:40.113Z,11.00
2017-09-21T18:51:07.935Z,10.23
2017-09-21T18:53:34.279Z,11.10
2017-09-21T18:56:00.614Z,10.90
2017-09-21T18:58:26.980Z,11.87
2017-09-21T19:00:54.036Z,10.27
2017-09-21T19:03:21.106Z,11.33
2017-09-21T19:05:48.218Z,10.90
2017-09-21T19:08:15.355Z,11.90
2017-09-21T19:10:41.730Z,13.40
2017-09-21T19:13:08.100Z,12.17
2017-09-21T19:15:34.417Z,12.40
2017-09-21T19:18:00.758Z,12.27
2017-09-21T19:20:27.127Z,11.33
2017-09-21T19:22:54.193Z,12.00
2017-09-21T19:25:20.532Z,12.30
2017-09-21T19:27:47.051Z,12.07
2017-09-21T19:30:14.113Z,12.40
2017-09-21T19:32:40.462Z,12.23
2017-09-21T19:35:06.853Z,11.17
2017-09-21T19:37:33.895Z,11.73
2017-09-21T19:40:00.209Z,11.60
2017-09-21T19:42:27.356Z,12.57
2017-09-21T19:44:53.688Z,11.83
2017-09-21T19:47:20.013Z,11.90
2017-09-21T19:49:46.298Z,12.83
2017-09-21T19:52:12.774Z,11.80
2017-09-21T19:54:39.182Z,11.10
2017-09-21T19:57:05.498Z,14.37
2017-09-21T19:59:31.872Z,12.07
2017-09-21T20:01:58.212Z,11.53
2017-09-21T20:04:25.333Z,12.50
2017-09-21T20:06:51.689Z,13.23
2017-09-21T20:09:18.780Z,10.80
2017-09-21T20:11:45.261Z,11.60
2017-09-21T20:14:11.594Z,12.60
2017-09-21T20:16:37.941Z,12.70
2017-09-21T20:19:04.233Z,13.00
2017-09-21T20:21:30.537Z,11.93
2017-09-21T20:23:56.897Z,12.13
2017-09-21T20:26:23.270Z,11.87
2017-09-21T20:28:50.324Z,11.33
2017-09-21T20:31:17.512Z,12.83
2017-09-21T20:33:43.935Z,11.20
2017-09-21T20:36:10.272Z,11.50
2017-09-21T20:38:36.752Z,11.83
2017-09-21T20:41:03.069Z,11.33
2017-09-21T20:43:29.448Z,12.17
2017-09-21T20:45:55.839Z,16.03
2017-09-21T20:48:22.208Z,13.40
2017-09-21T20:50:48.716Z,12.23
2017-09-21T20:53:15.035Z,11.90
2017-09-21T20:55:42.108Z,12.50
2017-09-21T20:58:09.376Z,11.73
2017-09-21T21:00:35.791Z,13.33
2017-09-21T21:03:02.833Z,12.73
2017-09-21T21:05:29.928Z,12.10
2017-09-21T21:07:56.313Z,12.53
2017-09-21T21:10:23.516Z,13.50
2017-09-21T21:12:49.861Z,11.90
2017-09-21T21:15:16.200Z,14.63
2017-09-21T21:17:42.741Z,14.27
2017-09-21T21:20:09.104Z,13.50
2017-09-21T21:22:36.224Z,13.23
2017-09-21T21:25:02.654Z,13.40
2017-09-21T21:27:29.004Z,14.10
2017-09-21T21:29:56.075Z,12.40
2017-09-21T21:32:22.423Z,14.40
2017-09-21T21:34:48.724Z,14.60
2017-09-21T21:37:15.076Z,13.60
2017-09-21T21:39:41.660Z,12.67
2017-09-21T21:42:08.736Z,13.20
2017-09-21T21:44:35.806Z,14.73
2017-09-21T21:47:02.102Z,13.43
2017-09-21T21:49:28.415Z,13.90
2017-09-21T21:51:54.858Z,13.40
2017-09-21T21:54:21.296Z,13.87
2017-09-21T21:56:48.355Z,14.13
2017-09-21T21:59:15.400Z,13.87
2017-09-21T22:01:42.489Z,12.30
2017-09-21T22:04:08.831Z,13.80
2017-09-21T22:06:35.182Z,15.20
2017-09-21T22:09:01.548Z,14.23
2017-09-21T22:11:28.785Z,13.43
2017-09-21T22:13:55.864Z,14.43
2017-09-21T22:16:22.301Z,15.57
2017-09-21T22:18:48.608Z,13.90
2017-09-21T22:21:15.703Z,15.00
2017-09-21T22:23:42.006Z,15.47
2017-09-21T22:26:08.296Z,14.70
2017-09-21T22:28:35.354Z,15.13
2017-09-21T22:31:02.456Z,14.30
2017-09-21T22:33:28.772Z,14.60
2017-09-21T22:35:55.099Z,14.67
2017-09-21T22:38:21.394Z,14.47
2017-09-21T22:40:48.447Z,14.70
2017-09-21T22:43:15.517Z,15.57
2017-09-21T22:45:41.852Z,15.23
2017-09-21T22:48:08.125Z,14.50
2017-09-21T22:50:34.444Z,13.40
2017-09-21T22:53:00.765Z,13.57
2017-09-21T22:55:27.098Z,13.70
2017-09-21T22:57:53.440Z,15.10
2017-09-21T23:00:19.760Z,15.67
2017-09-21T23:02:46.042Z,15.20
2017-09-21T23:05:12.400Z,15.23
2017-09-21T23:07:38.769Z,15.30
2017-09-21T23:10:05.822Z,15.17
2017-09-21T23:12:32.127Z,14.93
2017-09-21T23:14:58.439Z,14.37
2017-09-21T23:17:24.740Z,15.20
2017-09-21T23:19:51.845Z,14.57
2017-09-21T23:22:18.148Z,15.03
2017-09-21T23:24:44.448Z,14.70
2017-09-21T23:27:10.992Z,15.00
2017-09-21T23:29:37.365Z,15.00
2017-09-21T23:32:03.670Z,14.67
2017-09-21T23:34:30.015Z,14.77
2017-09-21T23:36:56.313Z,14.97
2017-09-21T23:39:22.641Z,15.50
2017-09-21T23:41:48.951Z,16.03
2017-09-21T23:44:16.086Z,15.30
2017-09-21T23:46:42.443Z,15.50
2017-09-21T23:49:08.788Z,16.47
2017-09-21T23:51:35.092Z,15.43
2017-09-21T23:54:02.120Z,16.30
2017-09-21T23:56:35.303Z,16.47
2017-09-21T23:59:01.632Z,15.87
